Time;durP1;ratioP1;P1;durP2;ratioP2;P2;SDS_P1;SDS_P2;PMS_P1;PMS_P2;Temp;Humidity;BMP_temperature;BMP_pressure;BME280_temperature;BME280_humidity;BME280_pressure;Samples;Min_cycle;Max_cycle;Signal;HPM_P1;HPM_P2
2022/06/23 00:00:33;;;;;;;;;22.75;22.75;;;;;23.50;62.71;100864.44;2383982;28;47239;-88
2022/06/23 00:01:57;;;;;;;;;26.25;26.25;;;;;23.49;62.77;100858.22;2384401;28;45235;-86
2022/06/23 00:03:07;;;;;;;;;23.00;20.75;;;;;23.49;63.69;100860.06;2382115;28;47155;-81
2022/06/23 00:04:21;;;;;;;;;32.75;26.75;;;;;23.46;63.24;100850.41;2383930;28;45438;-82
2022/06/23 00:05:39;;;;;;;;;23.75;22.00;;;;;23.45;63.25;100850.56;2383812;28;46451;-82
2022/06/23 00:07:12;;;;;;;;;24.75;22.25;;;;;23.45;62.96;100858.59;2384028;28;45235;-83
2022/06/23 00:08:23;;;;;;;;;24.00;18.75;;;;;23.39;63.08;100849.25;2384069;28;46511;-89
2022/06/23 00:09:48;;;;;;;;;26.00;21.50;;;;;23.30;62.34;100853.59;2384221;28;45223;-84
2022/06/23 00:11:00;;;;;;;;;24.50;22.75;;;;;23.21;63.42;100844.47;2384218;28;46581;-90
2022/06/23 00:12:15;;;;;;;;;21.50;21.50;;;;;23.15;63.00;100848.56;2392046;28;45256;-89
2022/06/23 00:13:34;;;;;;;;;28.00;24.25;;;;;23.11;63.39;100847.09;2389860;28;46690;-91
2022/06/23 00:14:55;;;;;;;;;25.00;24.25;;;;;23.09;63.61;100845.56;2383657;28;45312;-90
2022/06/23 00:16:06;;;;;;;;;22.25;20.75;;;;;23.04;63.87;100843.25;2387646;28;46380;-90
2022/06/23 00:17:19;;;;;;;;;25.50;24.25;;;;;23.01;64.34;100846.22;2390565;28;45476;-91
2022/06/23 00:18:36;;;;;;;;;25.00;23.00;;;;;22.97;64.15;100848.28;2384128;28;46736;-90
2022/06/23 00:19:47;;;;;;;;;24.75;23.50;;;;;22.96;64.40;100846.59;2384081;28;45285;-89
2022/06/23 00:21:02;;;;;;;;;29.00;23.00;;;;;22.96;64.24;100848.41;2392619;28;48935;-89
2022/06/23 00:22:15;;;;;;;;;23.75;22.25;;;;;22.97;64.29;100842.06;2389314;28;45499;-90
2022/06/23 00:23:28;;;;;;;;;25.25;25.00;;;;;22.97;64.34;100853.63;2384103;28;45493;-88
2022/06/23 00:24:40;;;;;;;;;23.50;22.25;;;;;22.96;64.11;100837.69;2383466;28;45457;-88
2022/06/23 00:26:12;;;;;;;;;21.50;20.25;;;;;22.97;64.14;100837.56;2385908;28;47442;-89
2022/06/23 00:27:31;;;;;;;;;29.00;26.75;;;;;23.00;64.75;100841.81;2387853;28;45252;-87
2022/06/23 00:28:41;;;;;;;;;26.75;24.50;;;;;22.99;64.51;100837.44;2384081;28;45422;-87
2022/06/23 00:29:54;;;;;;;;;28.25;27.25;;;;;22.98;64.86;100838.41;2384308;28;45265;-88
2022/06/23 00:31:07;;;;;;;;;28.75;27.00;;;;;22.97;65.16;100845.59;2384133;28;45629;-88
2022/06/23 00:32:18;;;;;;;;;25.75;23.25;;;;;22.96;64.57;100843.06;2383483;28;45225;-89
2022/06/23 00:33:37;;;;;;;;;19.75;18.50;;;;;22.93;65.05;100845.03;2383738;28;46442;-85
2022/06/23 00:34:58;;;;;;;;;26.25;25.50;;;;;22.93;65.17;100838.81;2384016;28;45319;-84
2022/06/23 00:36:43;;;;;;;;;26.25;25.25;;;;;22.95;65.19;100844.03;2384005;28;45411;-85
2022/06/23 00:37:53;;;;;;;;;34.75;27.75;;;;;22.91;65.32;100843.44;2384206;28;45162;-85
2022/06/23 00:39:06;;;;;;;;;22.50;22.50;;;;;22.91;65.21;100840.78;2384089;28;45380;-85
2022/06/23 00:40:23;;;;;;;;;24.50;22.50;;;;;22.88;65.42;100839.19;2383921;28;45434;-86
2022/06/23 00:41:36;;;;;;;;;29.25;25.25;;;;;22.88;64.88;100835.66;2383268;28;45279;-85
2022/06/23 00:43:02;;;;;;;;;23.75;21.25;;;;;22.90;64.80;100839.06;2392785;28;45337;-88
2022/06/23 00:44:22;;;;;;;;;26.50;26.50;;;;;22.91;65.78;100841.63;2387919;28;47161;-87
2022/06/23 00:45:43;;;;;;;;;25.50;25.00;;;;;22.92;65.16;100842.47;2383708;28;45254;-88
2022/06/23 00:46:58;;;;;;;;;23.25;19.25;;;;;22.90;64.77;100839.91;2392455;28;47116;-87
2022/06/23 00:48:34;;;;;;;;;25.50;24.50;;;;;22.87;65.29;100834.81;2389778;28;45342;-84
2022/06/23 00:50:22;;;;;;;;;26.00;26.00;;;;;22.88;65.39;100833.84;2383844;28;46716;-84
2022/06/23 00:51:41;;;;;;;;;33.75;30.50;;;;;22.88;65.74;100827.63;2384079;28;45188;-85
2022/06/23 00:53:00;;;;;;;;;25.50;24.50;;;;;22.89;65.54;100823.97;2383932;28;46314;-85
2022/06/23 00:54:30;;;;;;;;;30.50;28.25;;;;;22.87;65.87;100834.81;2378826;28;44622;-86
2022/06/23 00:55:41;;;;;;;;;26.75;24.75;;;;;22.87;66.03;100823.22;2377868;28;45465;-87
2022/06/23 00:56:55;;;;;;;;;26.00;24.50;;;;;22.86;66.10;100829.59;2384122;28;44549;-87
2022/06/23 00:58:18;;;;;;;;;26.25;25.00;;;;;22.85;66.29;100826.06;2384029;28;46299;-87
2022/06/23 00:59:41;;;;;;;;;27.25;25.25;;;;;22.84;66.09;100828.88;2392493;28;45277;-87
2022/06/23 01:00:58;;;;;;;;;27.50;27.50;;;;;22.81;65.72;100829.97;2387991;28;47341;-87
2022/06/23 01:02:13;;;;;;;;;25.50;23.25;;;;;22.81;65.92;100827.31;2383255;28;45362;-87
2022/06/23 01:03:40;;;;;;;;;25.75;24.50;;;;;22.84;66.37;100827.03;2383111;28;46822;-87
2022/06/23 01:05:02;;;;;;;;;21.75;20.50;;;;;22.84;65.99;100827.03;2387093;28;45299;-87
2022/06/23 01:06:19;;;;;;;;;26.00;23.50;;;;;22.83;65.61;100822.66;2388206;28;47697;-87
2022/06/23 01:08:02;;;;;;;;;34.50;27.25;;;;;22.79;65.13;100815.88;2390601;28;45240;-87
2022/06/23 01:09:20;;;;;;;;;29.25;26.50;;;;;22.76;66.37;100814.31;2380845;28;47384;-87
2022/06/23 01:11:01;;;;;;;;;25.25;24.00;;;;;22.77;65.95;100812.44;2385178;28;45232;-88
2022/06/23 01:12:39;;;;;;;;;32.50;28.25;;;;;22.75;65.84;100825.13;2394014;28;46051;-87
2022/06/23 01:14:02;;;;;;;;;24.50;22.50;;;;;22.76;66.29;100818.81;2388415;28;45251;-94
2022/06/23 01:15:40;;;;;;;;;30.50;26.00;;;;;22.74;66.16;100813.59;2384976;28;48122;-91
2022/06/23 01:16:55;;;;;;;;;20.25;18.25;;;;;22.72;65.88;100815.50;2391002;28;45252;-92
2022/06/23 01:18:15;;;;;;;;;23.50;22.50;;;;;22.71;65.62;100824.56;2394075;28;47498;-93
2022/06/23 01:19:54;;;;;;;;;25.00;23.25;;;;;22.70;66.42;100812.97;2381243;28;45363;-93
2022/06/23 01:21:18;;;;;;;;;26.25;24.25;;;;;22.73;66.12;100817.22;2381826;28;47425;-94
2022/06/23 01:22:50;;;;;;;;;22.25;20.50;;;;;22.73;66.17;100819.06;2379967;28;44832;-94
2022/06/23 01:24:19;;;;;;;;;29.25;24.75;;;;;22.73;66.25;100819.06;2381169;28;47463;-93
2022/06/23 01:25:48;;;;;;;;;29.00;25.75;;;;;22.72;66.27;100814.69;2380226;28;44732;-89
2022/06/23 01:27:17;;;;;;;;;29.50;26.50;;;;;22.70;66.52;100812.97;2389489;28;46974;-89
2022/06/23 01:28:30;;;;;;;;;27.75;27.75;;;;;22.67;66.40;100815.88;2390853;28;45295;-88
2022/06/23 01:29:44;;;;;;;;;31.25;27.75;;;;;22.63;65.78;100814.44;2394684;28;45316;-88
2022/06/23 01:31:17;;;;;;;;;27.00;26.50;;;;;22.62;65.58;100810.03;2394973;28;45303;-88
2022/06/23 01:32:34;;;;;;;;;30.75;27.75;;;;;22.64;66.01;100813.47;2388824;28;46335;-89
2022/06/23 01:34:12;;;;;;;;;28.75;28.75;;;;;22.67;66.09;100817.69;2388717;28;45392;-89
2022/06/23 01:35:31;;;;;;;;;33.25;27.00;;;;;22.65;66.04;100809.81;2384245;28;48252;-88
2022/06/23 01:36:47;;;;;;;;;29.00;29.00;;;;;22.64;66.32;100810.78;2387908;28;45258;-89
2022/06/23 01:38:10;;;;;;;;;33.00;30.50;;;;;22.64;66.59;100818.84;2387984;28;46879;-89
2022/06/23 01:39:33;;;;;;;;;32.75;30.00;;;;;22.65;66.77;100817.84;2376204;28;45223;-87
2022/06/23 01:40:55;;;;;;;;;31.50;27.25;;;;;22.65;66.15;100817.84;2385352;28;45279;-88
2022/06/23 01:42:18;;;;;;;;;30.75;27.50;;;;;22.65;66.18;100816.97;2385107;28;45362;-89
2022/06/23 01:43:38;;;;;;;;;28.25;26.25;;;;;22.60;66.23;100817.38;2376015;28;45352;-88
2022/06/23 01:44:53;;;;;;;;;29.00;28.50;;;;;22.58;65.81;100808.63;2385157;28;44625;-91
2022/06/23 01:46:14;;;;;;;;;32.50;28.00;;;;;22.57;66.92;100809.63;2385216;28;45575;-90
2022/06/23 01:47:38;;;;;;;;;29.75;27.50;;;;;22.56;66.56;100811.44;2385384;28;45410;-88
2022/06/23 01:48:58;;;;;;;;;29.50;27.25;;;;;22.55;66.42;100816.91;2385238;28;45354;-87
2022/06/23 01:50:14;;;;;;;;;35.50;31.50;;;;;22.54;66.49;100816.06;2384493;28;45442;-88
2022/06/23 01:51:30;;;;;;;;;35.25;32.25;;;;;22.54;66.60;100817.91;2384857;28;45311;-88
2022/06/23 01:52:47;;;;;;;;;35.00;31.25;;;;;22.53;67.10;100818.84;2385346;28;44589;-88
2022/06/23 01:54:12;;;;;;;;;29.25;28.75;;;;;22.49;66.54;100816.44;2385214;28;45485;-88
2022/06/23 01:55:30;;;;;;;;;32.00;28.25;;;;;22.49;66.71;100820.97;2376087;28;45207;-89
2022/06/23 01:56:46;;;;;;;;;36.50;31.50;;;;;22.49;66.57;100821.78;2382816;28;46995;-88
2022/06/23 01:58:04;;;;;;;;;34.75;30.25;;;;;22.47;67.10;100814.88;2381690;28;45408;-80
2022/06/23 01:59:52;;;;;;;;;28.00;27.25;;;;;22.50;67.51;100817.28;2378200;28;46273;-82
2022/06/23 02:01:05;;;;;;;;;34.25;31.25;;;;;22.49;67.09;100818.28;2385394;28;44697;-83
2022/06/23 02:02:25;;;;;;;;;38.75;34.50;;;;;22.47;67.29;100817.56;2384343;28;47324;-86
2022/06/23 02:03:43;;;;;;;;;34.00;30.50;;;;;22.45;67.44;100809.63;2379219;28;44790;-86
2022/06/23 02:05:28;;;;;;;;;31.00;29.25;;;;;22.47;67.17;100813.03;2388631;28;46399;-87
2022/06/23 02:06:50;;;;;;;;;39.75;32.75;;;;;22.51;67.54;100812.78;2383728;28;45450;-86
2022/06/23 02:08:28;;;;;;;;;30.50;29.50;;;;;22.49;67.28;100813.75;2384907;28;46407;-85
2022/06/23 02:09:45;;;;;;;;;30.75;29.50;;;;;22.51;67.82;100812.78;2385103;28;45436;-85
2022/06/23 02:11:06;;;;;;;;;32.75;28.50;;;;;22.53;67.75;100810.81;2385088;28;45362;-86
2022/06/23 02:12:27;;;;;;;;;33.25;28.25;;;;;22.54;67.53;100813.41;2385389;28;44672;-86
2022/06/23 02:14:11;;;;;;;;;33.75;30.00;;;;;22.54;67.65;100810.72;2384297;28;47193;-86
2022/06/23 02:15:28;;;;;;;;;35.00;30.75;;;;;22.52;67.62;100812.66;2384956;28;45228;-86
2022/06/23 02:16:45;;;;;;;;;33.00;27.75;;;;;22.52;67.68;100815.31;2384746;28;45314;-86
2022/06/23 02:18:14;;;;;;;;;34.00;28.00;;;;;22.54;68.05;100810.72;2385325;28;44847;-87
2022/06/23 02:19:39;;;;;;;;;31.75;31.25;;;;;22.57;68.57;100814.97;2383516;28;48285;-83
2022/06/23 02:21:02;;;;;;;;;33.00;28.50;;;;;22.58;67.48;100812.16;2384679;28;44752;-83
2022/06/23 02:22:21;;;;;;;;;31.50;31.00;;;;;22.60;67.61;100817.38;2384918;28;45287;-86
2022/06/23 02:23:31;;;;;;;;;35.00;31.75;;;;;22.63;68.03;100811.75;2385205;28;44616;-86
2022/06/23 02:25:09;;;;;;;;;33.50;31.50;;;;;22.64;67.64;100810.78;2384002;28;48258;-86
2022/06/23 02:26:27;;;;;;;;;29.50;28.00;;;;;22.64;67.74;100799.22;2385077;28;45338;-86
2022/06/23 02:27:43;;;;;;;;;33.50;27.75;;;;;22.64;67.95;100808.13;2393525;28;46063;-87
2022/06/23 02:29:12;;;;;;;;;30.75;28.50;;;;;22.64;67.79;100810.78;2390882;28;44748;-87
2022/06/23 02:30:31;;;;;;;;;21.50;21.00;;;;;22.65;66.58;100803.59;2384532;28;45584;-86
2022/06/23 02:31:46;;;;;;;;;21.25;19.50;;;;;22.67;67.47;100810.50;2385267;28;45183;-87
2022/06/23 02:33:07;;;;;;;;;23.00;17.75;;;;;22.71;65.96;100805.81;2384869;28;45510;-86
2022/06/23 02:34:30;;;;;;;;;22.50;19.75;;;;;22.75;65.70;100806.38;2400183;28;45189;-84
2022/06/23 02:35:52;;;;;;;;;21.75;19.50;;;;;22.78;65.27;100804.31;2383808;28;46413;-84
2022/06/23 02:37:44;;;;;;;;;7.00;7.00;;;;;22.84;66.33;100816.31;2384870;28;44549;-85
2022/06/23 02:38:59;;;;;;;;;4.75;4.75;;;;;22.85;66.26;100809.97;2384767;28;45405;-85
2022/06/23 02:40:22;;;;;;;;;17.75;16.75;;;;;22.88;64.78;100809.72;2384981;28;45424;-85
2022/06/23 02:41:39;;;;;;;;;9.25;9.25;;;;;22.90;65.58;100814.94;2384834;28;46473;-85
2022/06/23 02:42:56;;;;;;;;;15.00;13.50;;;;;22.95;64.42;100806.50;2377972;28;44735;-85
2022/06/23 02:44:18;;;;;;;;;11.50;11.50;;;;;23.00;64.75;100809.66;2380236;28;45401;-84
2022/06/23 02:46:02;;;;;;;;;7.00;7.00;;;;;23.03;64.45;100817.44;2385050;28;44799;-85
2022/06/23 02:47:38;;;;;;;;;8.50;4.75;;;;;23.04;65.45;100803.03;2384843;28;45382;-84
2022/06/23 02:49:07;;;;;;;;;7.75;5.25;;;;;23.07;65.30;100802.78;2385039;28;45317;-85
2022/06/23 02:50:52;;;;;;;;;10.50;9.75;;;;;23.07;63.82;100808.16;2384522;28;45305;-85
2022/06/23 02:52:06;;;;;;;;;2.75;1.25;;;;;23.08;65.39;100804.50;2365804;28;45582;-82
2022/06/23 02:53:30;;;;;;;;;6.50;6.50;;;;;23.09;64.96;100814.22;2384776;28;45407;-82
2022/06/23 02:54:44;;;;;;;;;6.75;6.75;;;;;23.10;64.19;100813.25;2384355;28;45416;-82
2022/06/23 02:56:26;;;;;;;;;10.50;7.25;;;;;23.11;64.62;100811.44;2384727;28;46584;-82
2022/06/23 02:57:40;;;;;;;;;12.50;9.00;;;;;23.11;64.36;100808.75;2374262;28;45352;-82
2022/06/23 02:58:54;;;;;;;;;6.00;5.00;;;;;23.09;64.57;100816.06;2384769;28;46590;-83
2022/06/23 03:00:30;;;;;;;;;6.75;5.25;;;;;23.06;64.62;100817.19;2384993;28;44708;-82
2022/06/23 03:01:47;;;;;;;;;4.75;4.75;;;;;23.07;64.50;100809.97;2384029;28;46522;-83
2022/06/23 03:03:37;;;;;;;;;5.25;4.50;;;;;23.02;65.20;100818.41;2379705;28;44678;-84
2022/06/23 03:04:55;;;;;;;;;9.00;8.25;;;;;22.96;63.92;100826.97;2380285;28;47297;-86
2022/06/23 03:06:27;;;;;;;;;5.00;4.00;;;;;22.93;63.56;100823.59;2381015;28;45453;-85
2022/06/23 03:08:03;;;;;;;;;7.25;6.25;;;;;22.92;64.66;100819.19;2384814;28;45290;-86
2022/06/23 03:09:33;;;;;;;;;8.25;5.00;;;;;22.93;63.75;100823.59;2384110;28;45290;-87
2022/06/23 03:10:55;;;;;;;;;5.25;5.25;;;;;22.96;63.89;100821.63;2380047;28;45525;-87
2022/06/23 03:12:18;;;;;;;;;6.00;4.25;;;;;23.00;64.26;100823.06;2384585;28;45338;-87
2022/06/23 03:13:44;;;;;;;;;5.00;4.00;;;;;22.99;64.22;100822.19;2393167;28;48456;-87
2022/06/23 03:15:06;;;;;;;;;7.00;7.00;;;;;23.00;63.87;100826.59;2393487;28;45251;-87
2022/06/23 03:16:36;;;;;;;;;6.75;6.75;;;;;23.02;63.90;100826.44;2383842;28;48364;-87
2022/06/23 03:18:15;;;;;;;;;5.50;5.25;;;;;23.03;63.62;100828.16;2384531;28;45394;-86
2022/06/23 03:19:33;;;;;;;;;7.00;6.00;;;;;23.06;62.94;100833.25;2384170;28;45648;-87
2022/06/23 03:20:55;;;;;;;;;6.00;6.00;;;;;23.07;62.56;100824.22;2393062;28;44641;-86
2022/06/23 03:22:30;;;;;;;;;7.00;6.00;;;;;23.11;62.44;100833.69;2389421;28;45493;-86
2022/06/23 03:23:49;;;;;;;;;5.50;5.50;;;;;23.14;62.13;100832.59;2393272;28;45425;-86
2022/06/23 03:25:14;;;;;;;;;7.00;4.00;;;;;23.15;63.39;100832.47;2392192;28;45581;-82
2022/06/23 03:26:55;;;;;;;;;5.50;5.00;;;;;23.17;63.85;100826.97;2384693;28;45219;-83
2022/06/23 03:28:22;;;;;;;;;5.75;5.00;;;;;23.15;63.84;100832.47;2382858;28;47346;-80
2022/06/23 03:29:44;;;;;;;;;4.75;3.50;;;;;23.15;63.57;100829.78;2384679;28;44608;-89
2022/06/23 03:31:06;;;;;;;;;4.00;4.00;;;;;23.15;63.36;100827.13;2383746;28;45299;-89
2022/06/23 03:32:21;;;;;;;;;4.75;4.25;;;;;23.18;62.87;100830.50;2384041;28;45245;-90
2022/06/23 03:33:35;;;;;;;;;5.50;3.50;;;;;23.20;62.89;100831.22;2390155;28;45302;-91
2022/06/23 03:35:21;;;;;;;;;5.50;4.00;;;;;23.21;62.63;100836.44;2384811;28;45496;-92
2022/06/23 03:36:42;;;;;;;;;4.00;3.00;;;;;23.24;62.34;100838.00;2374191;28;47111;-88
2022/06/23 03:38:09;;;;;;;;;7.25;5.25;;;;;23.27;62.70;100843.13;2382344;28;45240;-88
2022/06/23 03:41:37;;;;;;;;;4.00;3.50;;;;;23.26;62.72;100852.16;2384637;28;45282;-88
2022/06/23 03:42:56;;;;;;;;;6.25;4.00;;;;;23.23;62.01;100853.25;2391598;28;47472;-92
2022/06/23 03:44:16;;;;;;;;;4.25;4.00;;;;;23.24;62.38;100856.78;2384051;28;45311;-91
2022/06/23 03:45:32;;;;;;;;;4.00;3.00;;;;;23.25;62.23;100863.84;2380313;28;45423;-86
2022/06/23 03:47:01;;;;;;;;;4.75;4.75;;;;;23.26;62.07;100869.06;2382382;28;45165;-86
2022/06/23 03:48:18;;;;;;;;;5.00;4.25;;;;;23.27;61.68;100860.06;2384415;28;45325;-86
2022/06/23 03:49:50;;;;;;;;;5.25;4.75;;;;;23.32;61.55;100858.81;2384643;28;45528;-86
2022/06/23 03:51:09;;;;;;;;;3.50;3.50;;;;;23.34;61.41;100864.88;2383799;28;46401;-87
2022/06/23 03:52:26;;;;;;;;;6.75;5.00;;;;;23.33;61.98;100858.69;2384577;28;45206;-86
2022/06/23 03:53:49;;;;;;;;;4.50;4.50;;;;;23.34;62.68;100863.06;2384404;28;46544;-87
2022/06/23 03:55:06;;;;;;;;;5.75;5.25;;;;;23.34;63.15;100864.88;2382745;28;45160;-86
2022/06/23 03:56:23;;;;;;;;;7.00;3.00;;;;;23.32;63.43;100864.16;2383741;28;48170;-87
2022/06/23 03:57:46;;;;;;;;;8.00;4.50;;;;;23.28;62.71;100868.97;2383384;28;45187;-87
2022/06/23 03:59:18;;;;;;;;;3.50;3.00;;;;;23.27;63.29;100867.25;2384080;28;46369;-86
2022/06/23 04:00:35;;;;;;;;;5.25;4.25;;;;;23.21;63.26;100865.94;2384411;28;44796;-86
2022/06/23 04:01:52;;;;;;;;;6.50;4.25;;;;;23.21;63.10;100868.59;2383708;28;45230;-86
2022/06/23 04:03:22;;;;;;;;;7.50;4.25;;;;;23.19;63.64;100865.22;2393108;28;45185;-87
2022/06/23 04:04:53;;;;;;;;;4.75;4.75;;;;;23.18;63.60;100868.91;2383601;28;47211;-87
2022/06/23 04:06:18;;;;;;;;;5.50;4.75;;;;;23.16;63.15;100877.03;2389004;28;45180;-88
2022/06/23 04:07:29;;;;;;;;;6.00;5.00;;;;;23.14;63.80;100879.00;2386278;28;47223;-88
2022/06/23 04:09:05;;;;;;;;;3.75;3.75;;;;;23.12;62.79;100874.75;2376996;28;45272;-87
2022/06/23 04:10:25;;;;;;;;;3.50;3.50;;;;;23.11;61.87;100873.06;2373887;28;46294;-84
2022/06/23 04:11:52;;;;;;;;;4.25;4.25;;;;;23.14;62.96;100878.16;2393037;28;45364;-85
2022/06/23 04:13:21;;;;;;;;;4.00;4.00;;;;;23.15;62.27;100883.41;2388675;28;46468;-85
2022/06/23 04:14:42;;;;;;;;;5.00;5.00;;;;;23.17;62.38;100883.25;2384539;28;44608;-86
2022/06/23 04:15:55;;;;;;;;;4.00;4.00;;;;;23.15;61.98;100878.03;2384301;28;46275;-86
2022/06/23 04:17:24;;;;;;;;;5.25;5.25;;;;;23.14;62.85;100887.06;2384367;28;45346;-85
2022/06/23 04:18:39;;;;;;;;;4.00;4.00;;;;;23.13;62.17;100888.06;2382869;28;47393;-83
2022/06/23 04:19:55;;;;;;;;;6.00;4.25;;;;;23.12;62.67;100888.16;2383001;28;44799;-83
2022/06/23 04:21:14;;;;;;;;;4.50;4.50;;;;;23.11;62.14;100889.97;2392777;28;48405;-83
2022/06/23 04:22:39;;;;;;;;;5.75;4.25;;;;;23.11;61.61;100884.63;2389582;28;45227;-83
2022/06/23 04:23:54;;;;;;;;;3.75;3.75;;;;;23.14;61.92;100889.72;2384297;28;45314;-85
2022/06/23 04:25:07;;;;;;;;;7.25;4.75;;;;;23.13;62.27;100887.19;2384411;28;44601;-82
2022/06/23 04:26:25;;;;;;;;;6.00;4.00;;;;;23.13;62.41;100896.09;2383929;28;45573;-83
2022/06/23 04:27:48;;;;;;;;;5.50;4.75;;;;;23.13;62.45;100897.91;2384405;28;45141;-82
2022/06/23 04:29:11;;;;;;;;;4.25;4.25;;;;;23.12;62.28;100896.19;2383891;28;46307;-83
2022/06/23 04:30:27;;;;;;;;;4.50;4.50;;;;;23.11;62.87;100900.72;2384314;28;44632;-86
2022/06/23 04:31:50;;;;;;;;;8.50;5.00;;;;;23.11;61.29;100894.53;2384225;28;45401;-86
2022/06/23 04:33:04;;;;;;;;;3.50;3.50;;;;;23.10;62.12;100893.66;2384864;28;44691;-85
2022/06/23 04:34:25;;;;;;;;;4.50;4.00;;;;;23.10;61.89;100887.44;2387134;28;45514;-86
2022/06/23 04:35:39;;;;;;;;;3.75;3.75;;;;;23.10;62.97;100893.66;2384077;28;45535;-86
2022/06/23 04:36:49;;;;;;;;;3.00;3.00;;;;;23.11;63.24;100895.34;2384208;28;46457;-86
2022/06/23 04:38:03;;;;;;;;;6.75;4.25;;;;;23.09;62.75;100889.28;2384404;28;44827;-85
2022/06/23 04:39:29;;;;;;;;;5.25;4.00;;;;;23.09;62.32;100899.16;2383769;28;45439;-83
2022/06/23 04:40:42;;;;;;;;;3.75;3.75;;;;;23.08;62.82;100894.78;2383514;28;45385;-82
2022/06/23 04:42:22;;;;;;;;;4.00;4.00;;;;;23.06;61.81;100902.97;2384259;28;46467;-82
2022/06/23 04:43:41;;;;;;;;;3.50;3.50;;;;;23.06;63.34;100902.97;2384305;28;44608;-82
2022/06/23 04:45:17;;;;;;;;;5.00;5.00;;;;;23.05;63.21;100895.88;2384217;28;45239;-82
2022/06/23 04:46:31;;;;;;;;;5.00;3.00;;;;;23.03;62.80;100903.22;2384243;28;45311;-82
2022/06/23 04:47:42;;;;;;;;;4.25;4.25;;;;;23.02;63.32;100896.13;2383978;28;45363;-86
2022/06/23 04:48:58;;;;;;;;;5.50;4.00;;;;;23.02;62.63;100904.16;2384177;28;45351;-85
2022/06/23 04:50:15;;;;;;;;;4.25;4.25;;;;;23.00;62.17;100892.72;2383505;28;46136;-85
2022/06/23 04:51:39;;;;;;;;;4.75;3.25;;;;;23.01;62.51;100897.13;2392695;28;44782;-84
2022/06/23 04:52:54;;;;;;;;;2.25;2.25;;;;;23.04;61.75;100899.53;2387982;28;45349;-84
2022/06/23 04:54:10;;;;;;;;;3.00;3.00;;;;;23.07;61.77;100899.28;2384125;28;45299;-89
2022/06/23 04:55:26;;;;;;;;;6.00;6.00;;;;;23.08;62.74;100901.00;2383041;28;47087;-87
2022/06/23 04:56:44;;;;;;;;;4.50;4.00;;;;;23.09;62.22;100897.31;2386723;28;45204;-86
2022/06/23 04:58:21;;;;;;;;;6.75;4.00;;;;;23.09;62.43;100891.94;2389185;28;45357;-86
2022/06/23 04:59:42;;;;;;;;;4.50;4.50;;;;;23.12;61.77;100897.06;2383393;28;45272;-90
2022/06/23 05:00:54;;;;;;;;;3.00;3.00;;;;;23.13;62.35;100896.09;2383469;28;45567;-87
2022/06/23 05:02:39;;;;;;;;;4.25;3.00;;;;;23.12;61.97;100899.75;2384153;28;45279;-86
2022/06/23 05:03:55;;;;;;;;;4.50;4.50;;;;;23.08;62.29;100895.63;2383964;28;45633;-82
2022/06/23 05:05:18;;;;;;;;;6.00;4.00;;;;;23.07;61.71;100901.09;2376659;28;45339;-82
2022/06/23 05:06:40;;;;;;;;;4.00;4.00;;;;;23.03;61.91;100897.84;2385860;28;45551;-83
2022/06/23 05:08:03;;;;;;;;;5.75;4.00;;;;;23.03;61.75;100903.22;2386918;28;44744;-84
2022/06/23 05:09:18;;;;;;;;;5.00;4.00;;;;;23.00;63.01;100908.81;2383457;28;45418;-84
2022/06/23 05:10:38;;;;;;;;;4.25;4.00;;;;;22.97;62.35;100904.56;2382246;28;45326;-84
2022/06/23 05:11:52;;;;;;;;;3.25;2.75;;;;;22.92;63.44;100906.78;2384159;28;46636;-84
2022/06/23 05:13:08;;;;;;;;;6.25;5.25;;;;;22.86;63.22;100910.84;2392716;28;45319;-84
2022/06/23 05:14:43;;;;;;;;;5.00;5.00;;;;;22.82;62.20;100910.22;2389390;28;46437;-84
2022/06/23 05:16:05;;;;;;;;;3.25;3.25;;;;;22.79;62.12;100915.81;2383997;28;45225;-84
2022/06/23 05:17:29;;;;;;;;;7.25;5.25;;;;;22.78;62.24;100913.28;2384039;28;45582;-84
2022/06/23 05:18:47;;;;;;;;;5.00;4.75;;;;;22.73;62.48;100918.16;2384087;28;45280;-84
2022/06/23 05:20:01;;;;;;;;;4.00;4.00;;;;;22.68;62.42;100911.34;2383720;28;45449;-85
2022/06/23 05:21:42;;;;;;;;;3.25;3.00;;;;;22.68;62.84;100919.38;2382719;28;44716;-84
2022/06/23 05:22:53;;;;;;;;;3.25;3.00;;;;;22.64;62.90;100925.97;2383702;28;45657;-88
2022/06/23 05:24:18;;;;;;;;;8.00;3.50;;;;;22.63;62.92;100918.91;2383048;28;45213;-83
2022/06/23 05:25:34;;;;;;;;;3.75;3.75;;;;;22.63;62.89;100926.09;2381371;28;45540;-83
2022/06/23 05:26:59;;;;;;;;;6.75;4.75;;;;;22.58;61.78;100921.09;2391503;28;45402;-83
2022/06/23 05:28:18;;;;;;;;;0.75;0.25;;;;;22.57;62.74;100922.09;2394210;28;47270;-83
2022/06/23 05:29:37;;;;;;;;;6.00;4.25;;;;;22.53;62.37;100923.31;2388605;28;45490;-82
2022/06/23 05:30:52;;;;;;;;;6.00;4.75;;;;;22.53;62.97;100917.94;2382874;28;45499;-83
2022/06/23 05:32:15;;;;;;;;;4.00;4.00;;;;;22.55;62.03;100922.19;2383289;28;45222;-83
2022/06/23 05:33:30;;;;;;;;;6.25;4.75;;;;;22.55;62.62;100921.34;2382471;28;45771;-82
2022/06/23 05:34:55;;;;;;;;;7.50;5.50;;;;;22.54;61.47;100914.31;2383139;28;45337;-83
2022/06/23 05:36:27;;;;;;;;;5.25;4.00;;;;;22.50;61.86;100919.03;2381551;28;45423;-83
2022/06/23 05:37:51;;;;;;;;;8.25;5.00;;;;;22.51;62.42;100914.53;2382008;28;45315;-83
2022/06/23 05:39:13;;;;;;;;;4.50;3.25;;;;;22.50;62.32;100919.03;2389155;28;45458;-83
2022/06/23 05:40:36;;;;;;;;;6.00;4.00;;;;;22.49;61.89;100912.84;2386825;28;45456;-82
2022/06/23 05:41:52;;;;;;;;;5.25;4.00;;;;;22.47;62.32;100908.59;2382990;28;45424;-82
2022/06/23 05:43:03;;;;;;;;;4.25;3.75;;;;;22.46;63.38;100913.09;2379914;28;44766;-82
2022/06/23 05:44:22;;;;;;;;;5.00;5.00;;;;;22.47;62.56;100897.91;2379813;28;45524;-80
2022/06/23 05:45:43;;;;;;;;;6.00;4.50;;;;;22.47;62.11;100897.91;2382433;28;45527;-82
2022/06/23 05:46:57;;;;;;;;;3.75;3.75;;;;;22.50;62.81;100897.63;2382875;28;46659;-81
2022/06/23 05:48:14;;;;;;;;;5.50;5.00;;;;;22.51;62.59;100898.47;2381085;28;45564;-81
2022/06/23 05:49:30;;;;;;;;;8.50;6.50;;;;;22.52;62.58;100898.34;2382066;28;45713;-82
2022/06/23 05:50:45;;;;;;;;;6.25;6.00;;;;;22.55;63.11;100902.59;2383601;28;44713;-81
2022/06/23 05:52:12;;;;;;;;;5.75;5.25;;;;;22.55;62.53;100902.59;2384865;28;47867;-81
2022/06/23 05:53:36;;;;;;;;;7.25;4.75;;;;;22.56;61.98;100905.16;2384538;28;45207;-81
2022/06/23 05:54:55;;;;;;;;;8.25;5.00;;;;;22.55;62.23;100903.47;2384771;28;46623;-81
2022/06/23 05:56:23;;;;;;;;;5.00;5.00;;;;;22.52;62.15;100903.69;2383939;28;45231;-81
2022/06/23 05:57:37;;;;;;;;;9.00;9.00;;;;;22.53;62.84;100901.88;2382924;28;47377;-81
2022/06/23 05:59:10;;;;;;;;;10.00;9.50;;;;;22.52;62.66;100906.38;2384546;28;44746;-81
2022/06/23 06:00:35;;;;;;;;;5.75;5.25;;;;;22.54;62.39;100899.09;2383715;28;47311;-81
2022/06/23 06:01:55;;;;;;;;;5.75;4.50;;;;;22.59;62.91;100893.34;2385318;28;45224;-81
2022/06/23 06:03:16;;;;;;;;;4.75;4.75;;;;;22.64;62.34;100898.34;2384866;28;45549;-81
2022/06/23 06:04:53;;;;;;;;;5.25;4.50;;;;;22.66;62.01;100896.38;2385399;28;45251;-81
2022/06/23 06:06:03;;;;;;;;;3.75;3.75;;;;;22.66;60.68;100902.59;2386904;28;46885;-81
2022/06/23 06:07:17;;;;;;;;;7.00;7.00;;;;;22.66;60.92;100912.44;2384205;28;45248;-81
2022/06/23 06:08:33;;;;;;;;;6.50;6.50;;;;;22.61;60.94;100904.78;2381052;28;45292;-80
2022/06/23 06:09:45;;;;;;;;;7.25;6.00;;;;;22.57;60.71;100908.72;2385219;28;45301;-80
2022/06/23 06:10:58;;;;;;;;;7.25;6.25;;;;;22.55;61.26;100914.16;2384909;28;46632;-80
2022/06/23 06:12:17;;;;;;;;;6.50;6.50;;;;;22.55;61.30;100916.84;2385228;28;44802;-81
2022/06/23 06:13:37;;;;;;;;;7.50;6.00;;;;;22.57;61.32;100917.56;2383786;28;46500;-80
2022/06/23 06:14:54;;;;;;;;;7.00;6.00;;;;;22.55;61.31;100919.53;2393853;28;45687;-81
2022/06/23 06:16:05;;;;;;;;;5.25;5.25;;;;;22.58;61.60;100915.75;2389979;28;45418;-81
2022/06/23 06:17:19;;;;;;;;;7.00;6.00;;;;;22.59;62.49;100917.47;2384607;28;45370;-81
2022/06/23 06:18:37;;;;;;;;;10.00;6.75;;;;;22.59;61.58;100906.75;2384524;28;46691;-81
2022/06/23 06:19:50;;;;;;;;;7.00;6.00;;;;;22.57;61.76;100911.38;2384146;28;45957;-82